createdAt,value
2023-05-23T00:01:14.796Z,99619.19
2023-05-23T00:03:44.469Z,99621.53
2023-05-23T00:06:12.375Z,99622.66
2023-05-23T00:08:40.151Z,99617.03
2023-05-23T00:11:15.240Z,99625.34
2023-05-23T00:13:42.589Z,99618.75
2023-05-23T00:16:10.601Z,99617.56
2023-05-23T00:18:38.589Z,99612.13
2023-05-23T00:21:06.210Z,99612.75
2023-05-23T00:23:34.139Z,99612.72
2023-05-23T00:26:01.618Z,99613.22
2023-05-23T00:28:29.393Z,99607.88
2023-05-23T00:30:56.906Z,99614.31
2023-05-23T00:33:24.749Z,99618.78
2023-05-23T00:35:52.530Z,99612.13
2023-05-23T00:38:20.182Z,99609.72
2023-05-23T00:40:48.568Z,99613.22
2023-05-23T00:43:16.531Z,99612.37
2023-05-23T00:45:45.391Z,99610.56
2023-05-23T00:48:13.093Z,99613.84
2023-05-23T00:50:40.743Z,99615.44
2023-05-23T00:53:08.493Z,99616.41
2023-05-23T00:55:35.964Z,99622.75
2023-05-23T00:58:04.026Z,99618.13
2023-05-23T01:00:32.039Z,99615.59
2023-05-23T01:02:59.675Z,99622.28
2023-05-23T01:05:28.057Z,99618.78
2023-05-23T01:07:56.196Z,99616.44
2023-05-23T01:10:25.210Z,99619.25
2023-05-23T01:12:52.652Z,99619.22
2023-05-23T01:15:22.066Z,99616.97
2023-05-23T01:18:00.287Z,99620.13
2023-05-23T01:20:42.480Z,99612.09
2023-05-23T01:23:12.839Z,99606.31
2023-05-23T01:25:46.846Z,99610.06
2023-05-23T01:28:15.701Z,99603.50
2023-05-23T01:30:45.001Z,99610.47
2023-05-23T01:33:13.389Z,99603.16
2023-05-23T01:35:43.875Z,99588.78
2023-05-23T01:38:11.841Z,99591.94
2023-05-23T01:40:39.634Z,99595.84
2023-05-23T01:43:10.255Z,99595.41
2023-05-23T01:45:38.352Z,99588.59
2023-05-23T01:48:06.388Z,99595.16
2023-05-23T01:50:34.004Z,99600.84
2023-05-23T01:53:04.955Z,99586.62
2023-05-23T01:55:33.368Z,99591.59
2023-05-23T01:58:00.772Z,99586.75
2023-05-23T02:00:28.469Z,99588.34
2023-05-23T02:02:56.147Z,99585.38
2023-05-23T02:05:24.303Z,99583.59
2023-05-23T02:08:01.967Z,99582.75
2023-05-23T02:10:29.707Z,99578.88
2023-05-23T02:12:57.021Z,99580.81
2023-05-23T02:15:24.286Z,99583.50
2023-05-23T02:17:52.226Z,99582.28
2023-05-23T02:20:20.477Z,99582.03
2023-05-23T02:22:48.884Z,99583.00
2023-05-23T02:25:16.360Z,99583.72
2023-05-23T02:27:43.657Z,99583.94
2023-05-23T02:30:12.567Z,99585.19
2023-05-23T02:32:40.281Z,99577.41
2023-05-23T02:35:08.377Z,99572.69
2023-05-23T02:37:36.593Z,99571.19
2023-05-23T02:40:07.939Z,99578.50
2023-05-23T02:42:36.443Z,99577.62
2023-05-23T02:45:04.216Z,99580.09
2023-05-23T02:47:32.543Z,99577.19
2023-05-23T02:50:02.104Z,99574.84
2023-05-23T02:52:32.430Z,99582.03
2023-05-23T02:55:00.152Z,99573.75
2023-05-23T02:57:28.625Z,99569.88
2023-05-23T02:59:56.359Z,99566.22
2023-05-23T03:02:26.195Z,99569.16
2023-05-23T03:04:54.166Z,99573.28
2023-05-23T03:07:28.213Z,99569.97
2023-05-23T03:09:56.663Z,99577.41
2023-05-23T03:12:25.324Z,99568.53
2023-05-23T03:14:53.860Z,99571.78
2023-05-23T03:17:21.994Z,99575.91
2023-05-23T03:19:52.956Z,99578.72
2023-05-23T03:22:20.889Z,99578.72
2023-05-23T03:24:49.116Z,99577.62
2023-05-23T03:27:16.545Z,99585.66
2023-05-23T03:29:43.954Z,99581.03
2023-05-23T03:32:11.808Z,99583.22
2023-05-23T03:34:39.902Z,99579.09
2023-05-23T03:37:08.537Z,99581.16
2023-05-23T03:39:39.410Z,99572.56
2023-05-23T03:42:07.318Z,99570.81
2023-05-23T03:44:37.168Z,99574.72
2023-05-23T03:47:07.072Z,99569.97
2023-05-23T03:49:36.615Z,99570.97
2023-05-23T03:52:05.134Z,99568.66
2023-05-23T03:54:35.200Z,99574.50
2023-05-23T03:57:03.180Z,99574.72
2023-05-23T03:59:30.816Z,99571.31
2023-05-23T04:02:01.053Z,99574.84
2023-05-23T04:04:31.292Z,99568.88
2023-05-23T04:06:59.891Z,99570.84
2023-05-23T04:09:28.826Z,99571.56
2023-05-23T04:11:57.334Z,99568.63
2023-05-23T04:14:25.292Z,99576.44
2023-05-23T04:16:53.165Z,99571.09
2023-05-23T04:19:23.758Z,99572.16
2023-05-23T04:21:52.302Z,99566.41
2023-05-23T04:24:22.064Z,99567.06
2023-05-23T04:26:50.503Z,99571.31
2023-05-23T04:29:18.180Z,99566.69
2023-05-23T04:31:46.825Z,99568.66
2023-05-23T04:34:17.595Z,99568.00
2023-05-23T04:36:46.181Z,99563.97
2023-05-23T04:39:16.483Z,99560.53
2023-05-23T04:41:46.326Z,99564.75
2023-05-23T04:44:15.339Z,99567.88
2023-05-23T04:46:43.213Z,99571.75
2023-05-23T04:49:11.229Z,99570.97
2023-05-23T04:51:39.396Z,99571.25
2023-05-23T04:54:09.835Z,99567.09
2023-05-23T04:56:39.152Z,99566.09
2023-05-23T04:59:08.919Z,99566.34
2023-05-23T05:01:40.825Z,99566.91
2023-05-23T05:04:16.164Z,99568.91
2023-05-23T05:06:48.729Z,99564.50
2023-05-23T05:09:18.914Z,99565.09
2023-05-23T05:11:47.988Z,99562.12
2023-05-23T05:14:19.343Z,99555.66
2023-05-23T05:16:50.428Z,99564.66
2023-05-23T05:19:18.817Z,99562.03
2023-05-23T05:21:47.197Z,99563.62
2023-05-23T05:24:15.883Z,99563.62
2023-05-23T05:26:43.783Z,99559.22
2023-05-23T05:29:13.394Z,99555.12
2023-05-23T05:31:43.670Z,99555.19
2023-05-23T05:34:19.081Z,99555.69
2023-05-23T05:36:50.504Z,99558.50
2023-05-23T05:39:19.507Z,99557.94
2023-05-23T05:41:46.993Z,99561.22
2023-05-23T05:44:15.459Z,99562.75
2023-05-23T05:46:44.683Z,99554.56
2023-05-23T05:49:13.193Z,99562.75
2023-05-23T05:51:42.139Z,99558.94
2023-05-23T05:54:10.779Z,99564.69
2023-05-23T05:56:40.008Z,99559.00
2023-05-23T05:59:09.104Z,99561.38
2023-05-23T06:01:39.497Z,99559.22
2023-05-23T06:04:08.972Z,99560.88
2023-05-23T06:06:37.173Z,99552.63
2023-05-23T06:09:05.124Z,99544.91
2023-05-23T06:11:35.137Z,99548.38
2023-05-23T06:14:03.303Z,99542.66
2023-05-23T06:16:32.996Z,99540.44
2023-05-23T06:19:01.624Z,99543.13
2023-05-23T06:21:29.692Z,99536.41
2023-05-23T06:23:59.685Z,99550.28
2023-05-23T06:26:27.691Z,99538.06
2023-05-23T06:28:55.854Z,99545.06
2023-05-23T06:31:24.170Z,99543.66
2023-05-23T06:33:52.888Z,99535.13
2023-05-23T06:36:20.476Z,99539.19
2023-05-23T06:38:50.033Z,99535.25
2023-05-23T06:41:18.730Z,99545.34
2023-05-23T06:43:46.910Z,99544.72
2023-05-23T06:46:17.046Z,99532.75
2023-05-23T06:48:47.126Z,99533.78
2023-05-23T06:51:19.235Z,99529.44
2023-05-23T06:53:47.101Z,99531.94
2023-05-23T06:56:15.703Z,99531.50
2023-05-23T06:58:47.108Z,99528.25
2023-05-23T07:01:18.609Z,99526.50
2023-05-23T07:03:47.076Z,99533.41
2023-05-23T07:06:17.006Z,99532.28
2023-05-23T07:08:46.940Z,99531.47
2023-05-23T07:11:16.319Z,99523.50
2023-05-23T07:13:45.239Z,99517.59
2023-05-23T07:16:14.499Z,99520.13
2023-05-23T07:18:47.519Z,99514.84
2023-05-23T07:21:16.418Z,99504.34
2023-05-23T07:23:46.255Z,99511.91
2023-05-23T07:26:14.246Z,99511.00
2023-05-23T07:28:44.010Z,99501.00
2023-05-23T07:31:13.676Z,99509.12
2023-05-23T07:33:41.518Z,99502.00
2023-05-23T07:36:10.874Z,99499.72
2023-05-23T07:38:39.669Z,99504.03
2023-05-23T07:41:12.039Z,99507.81
2023-05-23T07:43:43.170Z,99499.72
2023-05-23T07:46:11.329Z,99504.13
2023-05-23T07:48:39.116Z,99502.28
2023-05-23T07:51:11.032Z,99497.16
2023-05-23T07:53:40.477Z,99493.59
2023-05-23T07:56:10.034Z,99495.34
2023-05-23T07:58:41.153Z,99492.91
2023-05-23T08:01:09.164Z,99495.63
2023-05-23T08:03:41.821Z,99487.97
2023-05-23T08:06:09.901Z,99493.56
2023-05-23T08:08:40.374Z,99484.13
2023-05-23T08:11:09.519Z,99491.31
2023-05-23T08:13:37.558Z,99483.00
2023-05-23T08:16:09.900Z,99481.22
2023-05-23T08:18:38.169Z,99481.88
2023-05-23T08:21:10.249Z,99489.75
2023-05-23T08:23:40.068Z,99491.31
2023-05-23T08:26:08.097Z,99484.00
2023-05-23T08:28:42.947Z,99483.88
2023-05-23T08:31:11.713Z,99485.03
2023-05-23T08:33:40.652Z,99493.16
2023-05-23T08:36:16.346Z,99490.47
2023-05-23T08:38:46.874Z,99487.75
2023-05-23T08:41:21.210Z,99490.19
2023-05-23T08:43:51.081Z,99489.75
2023-05-23T08:46:23.235Z,99488.25
2023-05-23T08:48:51.938Z,99490.06
2023-05-23T08:51:24.194Z,99480.22
2023-05-23T08:53:53.738Z,99485.53
2023-05-23T08:56:22.368Z,99491.78
2023-05-23T08:58:53.323Z,99485.16
2023-05-23T09:01:21.884Z,99483.06
2023-05-23T09:03:52.113Z,99484.38
2023-05-23T09:06:21.484Z,99489.75
2023-05-23T09:08:49.353Z,99484.06
2023-05-23T09:11:17.542Z,99483.91
2023-05-23T09:13:49.020Z,99485.44
2023-05-23T09:16:20.743Z,99481.09
2023-05-23T09:18:49.161Z,99489.16
2023-05-23T09:21:18.197Z,99493.66
2023-05-23T09:23:47.178Z,99490.59
2023-05-23T09:26:14.935Z,99483.94
2023-05-23T09:28:47.321Z,99478.56
2023-05-23T09:31:16.687Z,99479.38
2023-05-23T09:33:48.791Z,99475.84
2023-05-23T09:36:17.735Z,99485.03
2023-05-23T09:38:47.082Z,99479.50
2023-05-23T09:41:15.030Z,99478.50
2023-05-23T09:43:52.682Z,99477.53
2023-05-23T09:46:28.836Z,99477.91
2023-05-23T09:48:58.022Z,99469.44
2023-05-23T09:51:25.991Z,99463.72
2023-05-23T09:53:54.512Z,99471.47
2023-05-23T09:56:32.797Z,99466.69
2023-05-23T09:59:01.953Z,99473.66
2023-05-23T10:01:29.505Z,99467.31
2023-05-23T10:04:00.555Z,99472.72
2023-05-23T10:06:31.748Z,99481.63
2023-05-23T10:09:02.207Z,99470.22
2023-05-23T10:11:33.562Z,99465.47
2023-05-23T10:14:09.756Z,99457.28
2023-05-23T10:16:37.417Z,99461.06
2023-05-23T10:19:08.260Z,99459.69
2023-05-23T10:21:38.769Z,99452.16
2023-05-23T10:24:07.397Z,99451.47
2023-05-23T10:26:35.233Z,99449.38
2023-05-23T10:29:03.534Z,99448.88
2023-05-23T10:31:32.545Z,99449.31
2023-05-23T10:34:25.219Z,99446.81
2023-05-23T10:36:58.069Z,99447.38
2023-05-23T10:39:34.182Z,99441.97
2023-05-23T10:42:03.502Z,99439.53
2023-05-23T10:44:33.371Z,99435.69
2023-05-23T10:47:03.241Z,99434.12
2023-05-23T10:49:41.780Z,99438.38
2023-05-23T10:52:11.332Z,99444.44
2023-05-23T10:54:45.241Z,99437.09
2023-05-23T10:57:16.869Z,99439.22
2023-05-23T10:59:45.631Z,99434.59
2023-05-23T11:02:14.771Z,99424.66
2023-05-23T11:04:44.996Z,99424.50
2023-05-23T11:07:32.794Z,99426.34
2023-05-23T11:10:11.485Z,99421.13
2023-05-23T11:12:40.644Z,99423.69
2023-05-23T11:15:17.727Z,99415.69
2023-05-23T11:17:57.538Z,99415.47
2023-05-23T11:20:39.040Z,99406.69
2023-05-23T11:23:08.525Z,99410.59
2023-05-23T11:25:43.203Z,99408.41
2023-05-23T11:28:13.081Z,99405.97
2023-05-23T11:30:44.410Z,99387.97
2023-05-23T11:33:20.001Z,99393.81
2023-05-23T11:35:51.893Z,99393.19
2023-05-23T11:38:25.323Z,99385.22
2023-05-23T11:40:52.754Z,99382.06
2023-05-23T11:43:26.353Z,99383.75
2023-05-23T11:45:55.025Z,99380.84
2023-05-23T11:48:24.260Z,99369.03
2023-05-23T11:50:53.120Z,99364.38
2023-05-23T11:53:22.249Z,99370.75
2023-05-23T11:55:59.270Z,99358.53
2023-05-23T11:58:30.090Z,99343.34
2023-05-23T12:01:02.086Z,99344.00
2023-05-23T12:03:31.981Z,99344.34
2023-05-23T12:06:02.022Z,99344.75
2023-05-23T12:08:31.532Z,99331.31
2023-05-23T12:11:01.341Z,99332.09
2023-05-23T12:13:30.442Z,99331.84
2023-05-23T12:16:03.042Z,99332.66
2023-05-23T12:18:31.922Z,99323.37
2023-05-23T12:21:03.795Z,99323.00
2023-05-23T12:23:34.752Z,99316.34
2023-05-23T12:26:11.155Z,99312.31
2023-05-23T12:28:45.172Z,99315.47
2023-05-23T12:31:14.126Z,99311.59
2023-05-23T12:33:46.223Z,99305.53
2023-05-23T12:36:25.355Z,99301.38
2023-05-23T12:41:30.756Z,99296.03
2023-05-23T12:44:00.250Z,99300.75
2023-05-23T12:46:29.185Z,99293.69
2023-05-23T12:49:01.413Z,99295.75
2023-05-23T12:51:32.556Z,99291.72
2023-05-23T12:54:03.257Z,99289.69
2023-05-23T12:56:32.631Z,99294.69
2023-05-23T12:59:09.125Z,99285.00
2023-05-23T13:01:38.904Z,99280.59
2023-05-23T13:04:08.461Z,99266.47
2023-05-23T13:06:36.627Z,99267.94
2023-05-23T13:09:05.898Z,99270.94
2023-05-23T13:11:35.603Z,99256.06
2023-05-23T13:14:09.252Z,99260.59
2023-05-23T13:16:42.202Z,99264.09
2023-05-23T13:19:17.108Z,99265.06
2023-05-23T13:21:49.952Z,99257.91
2023-05-23T13:24:19.434Z,99259.78
2023-05-23T13:26:53.317Z,99254.72
2023-05-23T13:29:21.619Z,99257.69
2023-05-23T13:31:49.828Z,99254.94
2023-05-23T13:34:18.169Z,99256.56
2023-05-23T13:36:50.512Z,99248.25
2023-05-23T13:39:21.141Z,99249.00
2023-05-23T13:41:51.189Z,99257.72
2023-05-23T13:44:19.670Z,99262.06
2023-05-23T13:46:47.552Z,99264.72
2023-05-23T13:49:19.011Z,99258.56
2023-05-23T13:51:48.121Z,99259.94
2023-05-23T13:54:16.310Z,99259.94
2023-05-23T13:56:44.774Z,99262.63
2023-05-23T13:59:14.122Z,99256.41
2023-05-23T14:01:42.343Z,99255.22
2023-05-23T14:04:10.328Z,99248.31
2023-05-23T14:06:38.393Z,99250.75
2023-05-23T14:09:06.817Z,99245.25
2023-05-23T14:11:36.124Z,99249.75
2023-05-23T14:14:04.261Z,99258.66
2023-05-23T14:16:33.625Z,99241.84
2023-05-23T14:19:01.792Z,99244.22
2023-05-23T14:21:36.660Z,99244.34
2023-05-23T14:24:08.180Z,99243.19
2023-05-23T14:26:38.185Z,99217.84
2023-05-23T14:29:07.972Z,99228.22
2023-05-23T14:31:39.436Z,99227.56
2023-05-23T14:34:10.276Z,99231.78
2023-05-23T14:36:39.280Z,99228.53
2023-05-23T14:39:10.644Z,99233.78
2023-05-23T14:41:41.945Z,99235.81
2023-05-23T14:44:10.432Z,99219.78
2023-05-23T14:46:42.333Z,99227.94
2023-05-23T14:49:11.648Z,99226.44
2023-05-23T14:54:10.371Z,99224.72
2023-05-23T14:56:41.377Z,99218.88
2023-05-23T14:59:16.325Z,99220.91
2023-05-23T15:01:52.192Z,99211.53
2023-05-23T15:04:20.206Z,99211.94
2023-05-23T15:06:48.691Z,99220.91
2023-05-23T15:09:19.102Z,99231.66
2023-05-23T15:11:50.344Z,99232.06
2023-05-23T15:14:17.911Z,99227.66
2023-05-23T15:16:49.266Z,99218.69
2023-05-23T15:19:20.185Z,99224.16
2023-05-23T15:21:54.146Z,99221.09
2023-05-23T15:24:22.709Z,99222.59
2023-05-23T15:26:53.469Z,99224.06
2023-05-23T15:29:25.412Z,99236.59
2023-05-23T15:31:54.002Z,99241.31
2023-05-23T15:34:27.192Z,99232.72
2023-05-23T15:36:57.140Z,99236.03
2023-05-23T15:39:35.154Z,99232.13
2023-05-23T15:42:08.821Z,99238.19
2023-05-23T15:44:37.748Z,99242.38
2023-05-23T15:47:08.555Z,99233.53
2023-05-23T15:49:40.558Z,99234.78
2023-05-23T15:52:09.776Z,99233.00
2023-05-23T15:54:38.636Z,99229.03
2023-05-23T15:57:07.172Z,99218.75
2023-05-23T15:59:36.585Z,99218.94
2023-05-23T16:02:10.515Z,99216.03
2023-05-23T16:04:39.118Z,99222.28
2023-05-23T16:07:06.866Z,99222.72
2023-05-23T16:09:35.328Z,99224.22
2023-05-23T16:12:09.954Z,99220.41
2023-05-23T16:14:39.169Z,99221.03
2023-05-23T16:17:13.166Z,99218.31
2023-05-23T16:19:43.357Z,99220.41
2023-05-23T16:22:15.135Z,99222.72
2023-05-23T16:24:47.266Z,99227.12
2023-05-23T16:27:16.503Z,99218.31
2023-05-23T16:29:47.210Z,99222.28
2023-05-23T16:32:17.293Z,99229.84
2023-05-23T16:34:52.685Z,99235.72
2023-05-23T16:37:26.556Z,99237.16
2023-05-23T16:40:04.348Z,99239.47
2023-05-23T16:42:38.754Z,99249.53
2023-05-23T16:45:08.356Z,99252.00
2023-05-23T16:47:39.474Z,99265.19
2023-05-23T16:50:08.791Z,99261.63
2023-05-23T16:55:13.990Z,99258.47
2023-05-23T16:57:43.410Z,99254.03
2023-05-23T17:00:12.538Z,99251.06
2023-05-23T17:02:40.732Z,99255.59
2023-05-23T17:05:18.306Z,99252.53
2023-05-23T17:07:51.079Z,99263.84
2023-05-23T17:10:23.129Z,99265.12
2023-05-23T17:12:58.139Z,99263.69
2023-05-23T17:18:09.122Z,99285.16
2023-05-23T17:20:37.223Z,99344.56
2023-05-23T17:23:08.144Z,99381.03
2023-05-23T17:25:37.176Z,99394.09
2023-05-23T17:28:07.493Z,99409.75
2023-05-23T17:30:47.203Z,99406.87
2023-05-23T17:33:19.372Z,99399.81
2023-05-23T17:35:53.250Z,99409.97
2023-05-23T17:38:22.150Z,99411.12
2023-05-23T17:40:53.000Z,99417.25
2023-05-23T17:43:24.713Z,99412.13
2023-05-23T17:48:46.458Z,99422.72
2023-05-23T17:51:18.784Z,99427.31
2023-05-23T17:53:53.578Z,99430.37
2023-05-23T17:56:25.042Z,99429.53
2023-05-23T17:58:55.283Z,99440.19
2023-05-23T18:01:28.424Z,99446.44
2023-05-23T18:04:04.565Z,99441.88
2023-05-23T18:06:38.195Z,99445.81
2023-05-23T18:09:14.248Z,99457.00
2023-05-23T18:11:47.727Z,99455.81
2023-05-23T18:14:23.149Z,99464.56
2023-05-23T18:16:55.361Z,99461.72
2023-05-23T18:19:31.296Z,99463.31
2023-05-23T18:22:02.209Z,99476.78
2023-05-23T18:24:37.262Z,99467.69
2023-05-23T18:27:05.883Z,99465.19
2023-05-23T18:29:42.283Z,99457.69
2023-05-23T18:32:18.209Z,99453.03
2023-05-23T18:34:47.411Z,99457.12
2023-05-23T18:37:23.333Z,99460.47
2023-05-23T18:39:59.174Z,99456.69
2023-05-23T18:42:30.201Z,99459.59
2023-05-23T18:45:00.259Z,99453.13
2023-05-23T18:47:32.181Z,99446.84
2023-05-23T18:50:13.122Z,99446.63
2023-05-23T18:55:27.203Z,99449.31
2023-05-23T18:57:55.286Z,99440.34
2023-05-23T19:00:32.205Z,99452.37
2023-05-23T19:03:08.777Z,99450.41
2023-05-23T19:08:10.180Z,99452.72
2023-05-23T19:10:38.277Z,99455.25
2023-05-23T19:13:09.452Z,99471.84
2023-05-23T19:15:37.645Z,99473.06
2023-05-23T19:18:09.336Z,99475.91
2023-05-23T19:20:40.303Z,99475.00
2023-05-23T19:23:15.373Z,99479.19
2023-05-23T19:25:47.593Z,99487.09
2023-05-23T19:28:21.421Z,99489.19
2023-05-23T19:30:50.265Z,99483.78
2023-05-23T19:33:19.504Z,99486.38
2023-05-23T19:35:49.440Z,99486.56
2023-05-23T19:38:18.945Z,99492.41
2023-05-23T19:40:47.754Z,99486.44
2023-05-23T19:43:17.278Z,99487.88
2023-05-23T19:45:46.377Z,99495.28
2023-05-23T19:48:16.379Z,99503.22
2023-05-23T19:50:53.177Z,99506.37
2023-05-23T19:53:24.420Z,99508.22
2023-05-23T19:55:54.331Z,99507.94
2023-05-23T19:58:27.181Z,99508.75
2023-05-23T20:00:59.653Z,99499.06
2023-05-23T20:03:34.206Z,99507.50
2023-05-23T20:06:01.983Z,99504.84
2023-05-23T20:08:37.628Z,99506.81
2023-05-23T20:11:07.694Z,99519.50
2023-05-23T20:13:37.754Z,99508.69
2023-05-23T20:16:08.652Z,99511.25
2023-05-23T20:18:39.385Z,99498.19
2023-05-23T20:21:07.194Z,99505.09
2023-05-23T20:23:34.477Z,99512.94
2023-05-23T20:26:03.661Z,99520.69
2023-05-23T20:28:33.285Z,99508.94
2023-05-23T20:31:04.313Z,99498.19
2023-05-23T20:33:38.251Z,99492.88
2023-05-23T20:36:06.865Z,99500.16
2023-05-23T20:38:36.406Z,99503.69
2023-05-23T20:41:07.171Z,99504.97
2023-05-23T20:43:39.717Z,99511.19
2023-05-23T20:46:09.252Z,99510.38
2023-05-23T20:48:39.522Z,99511.81
2023-05-23T20:51:08.252Z,99507.59
2023-05-23T20:53:37.444Z,99520.44
2023-05-23T20:56:05.837Z,99532.09
2023-05-23T20:58:37.074Z,99543.69
2023-05-23T21:01:05.648Z,99548.50
2023-05-23T21:03:35.812Z,99546.94
2023-05-23T21:06:03.900Z,99546.44
2023-05-23T21:08:34.714Z,99547.28
2023-05-23T21:11:02.978Z,99546.84
2023-05-23T21:13:31.107Z,99558.16
2023-05-23T21:15:59.251Z,99560.06
2023-05-23T21:18:27.450Z,99564.16
2023-05-23T21:20:55.416Z,99571.25
2023-05-23T21:23:23.913Z,99585.06
2023-05-23T21:25:56.478Z,99578.84
2023-05-23T21:28:26.760Z,99577.56
2023-05-23T21:30:55.529Z,99575.16
2023-05-23T21:33:24.067Z,99582.78
2023-05-23T21:35:58.116Z,99594.53
2023-05-23T21:38:29.713Z,99588.44
2023-05-23T21:40:59.133Z,99590.97
2023-05-23T21:43:27.553Z,99598.72
2023-05-23T21:45:56.172Z,99601.19
2023-05-23T21:48:25.400Z,99598.34
2023-05-23T21:50:53.144Z,99603.72
2023-05-23T21:53:21.369Z,99599.09
2023-05-23T21:55:51.127Z,99602.75
2023-05-23T21:58:18.856Z,99602.22
2023-05-23T22:00:47.381Z,99611.84
2023-05-23T22:03:16.109Z,99610.84
2023-05-23T22:05:45.248Z,99620.91
2023-05-23T22:08:13.001Z,99629.66
2023-05-23T22:10:43.053Z,99632.09
2023-05-23T22:13:10.866Z,99627.72
2023-05-23T22:15:39.193Z,99627.28
2023-05-23T22:18:07.544Z,99617.47
2023-05-23T22:20:38.886Z,99622.16
2023-05-23T22:23:09.944Z,99616.78
2023-05-23T22:25:39.051Z,99621.91
2023-05-23T22:28:07.299Z,99626.41
2023-05-23T22:30:35.922Z,99625.28
2023-05-23T22:33:03.555Z,99625.44
2023-05-23T22:35:32.163Z,99634.34
2023-05-23T22:38:00.058Z,99623.19
2023-05-23T22:40:27.336Z,99627.28
2023-05-23T22:42:55.306Z,99631.78
2023-05-23T22:45:23.047Z,99622.47
2023-05-23T22:47:53.991Z,99628.97
2023-05-23T22:50:22.650Z,99629.09
2023-05-23T22:52:50.732Z,99627.25
2023-05-23T22:55:19.242Z,99619.91
2023-05-23T22:57:46.981Z,99620.19
2023-05-23T23:00:14.908Z,99619.34
2023-05-23T23:02:44.554Z,99620.44
2023-05-23T23:05:12.758Z,99622.41
2023-05-23T23:07:41.185Z,99617.91
2023-05-23T23:10:10.021Z,99610.97
2023-05-23T23:12:37.585Z,99614.66
2023-05-23T23:15:05.875Z,99631.19
2023-05-23T23:17:33.879Z,99630.28
2023-05-23T23:20:02.255Z,99631.19
2023-05-23T23:22:31.656Z,99624.22
2023-05-23T23:24:59.066Z,99623.09
2023-05-23T23:27:30.873Z,99619.50
2023-05-23T23:29:59.225Z,99618.56
2023-05-23T23:32:27.178Z,99623.50
2023-05-23T23:34:54.897Z,99623.78
2023-05-23T23:37:22.759Z,99629.56
2023-05-23T23:39:50.211Z,99630.97
2023-05-23T23:42:17.922Z,99632.25
2023-05-23T23:44:45.653Z,99628.88
2023-05-23T23:47:12.943Z,99626.75
2023-05-23T23:49:41.803Z,99634.50
2023-05-23T23:52:09.575Z,99636.91
2023-05-23T23:54:37.350Z,99631.84
2023-05-23T23:57:06.681Z,99632.50
2023-05-23T23:59:36.336Z,99630.50
